Time;durP1;ratioP1;P1;durP2;ratioP2;P2;SDS_P1;SDS_P2;PMS_P1;PMS_P2;Temp;Humidity;BMP_temperature;BMP_pressure;BME280_temperature;BME280_humidity;BME280_pressure;Samples;Min_cycle;Max_cycle;Signal;HPM_P1;HPM_P2
2021/06/09 00:02:11;;;;;;;11.55;10.35;;;;;;;17.97;75.37;100612.25;2681821;88;21709;-69
2021/06/09 00:06:13;;;;;;;9.10;7.97;;;;;;;17.82;75.55;100610.20;2682436;88;21128;-67
2021/06/09 00:10:15;;;;;;;11.45;8.63;;;;;;;17.79;75.92;100610.53;2682148;88;21161;-67
2021/06/09 00:14:18;;;;;;;10.32;9.25;;;;;;;17.83;76.03;100611.88;2682230;88;21073;-67
2021/06/09 00:18:20;;;;;;;10.72;9.50;;;;;;;17.93;75.64;100610.91;2682475;88;21025;-68
2021/06/09 00:22:23;;;;;;;9.75;8.10;;;;;;;18.01;75.37;100614.11;2682426;88;21065;-66
2021/06/09 00:26:25;;;;;;;11.80;8.70;;;;;;;18.10;75.08;100611.29;2681568;88;21105;-67
2021/06/09 00:30:31;;;;;;;9.28;8.35;;;;;;;18.18;74.67;100618.53;2681853;88;21089;-68
2021/06/09 00:34:33;;;;;;;10.03;8.68;;;;;;;18.29;74.50;100615.15;2682325;88;21064;-67
2021/06/09 00:38:35;;;;;;;10.05;7.47;;;;;;;18.34;74.18;100616.82;2682340;88;21014;-67
2021/06/09 00:42:38;;;;;;;9.55;7.25;;;;;;;18.41;73.92;100619.20;2682012;88;21097;-67
2021/06/09 00:46:42;;;;;;;9.58;7.22;;;;;;;18.44;73.65;100618.85;2682396;88;21014;-68
2021/06/09 00:50:44;;;;;;;10.30;7.80;;;;;;;18.51;73.59;100619.84;2682402;88;21125;-66
2021/06/09 00:54:46;;;;;;;11.65;7.62;;;;;;;18.57;73.37;100618.33;2681767;88;21050;-67
2021/06/09 00:58:50;;;;;;;8.68;7.67;;;;;;;18.57;73.12;100625.06;2682089;88;21045;-67
2021/06/09 01:02:51;;;;;;;8.50;7.62;;;;;;;18.56;73.40;100619.34;2681818;88;21053;-68
2021/06/09 01:06:53;;;;;;;7.40;6.70;;;;;;;18.53;73.37;100629.94;2682442;88;21399;-67
2021/06/09 01:10:55;;;;;;;8.35;7.30;;;;;;;18.46;73.50;100632.12;2682176;88;21141;-67
2021/06/09 01:14:57;;;;;;;10.35;7.65;;;;;;;18.35;74.10;100627.44;2682198;88;21049;-68
2021/06/09 01:18:59;;;;;;;10.93;7.42;;;;;;;18.29;74.38;100630.81;2682291;88;21038;-68
2021/06/09 01:23:02;;;;;;;9.60;7.67;;;;;;;18.22;74.52;100625.75;2682173;88;21069;-68
2021/06/09 01:27:05;;;;;;;10.78;7.25;;;;;;;18.18;74.74;100624.41;2699505;85;21101;-67
2021/06/09 01:31:08;;;;;;;10.75;7.08;;;;;;;18.13;74.93;100622.20;2682338;88;21061;-66
2021/06/09 01:35:10;;;;;;;13.03;7.33;;;;;;;18.07;75.06;100627.75;2713620;87;21076;-68
2021/06/09 01:39:16;;;;;;;11.73;6.65;;;;;;;18.02;75.27;100624.72;2725913;87;21022;-67
2021/06/09 01:43:18;;;;;;;7.50;6.62;;;;;;;17.95;75.57;100624.51;2725832;87;21069;-67
2021/06/09 01:47:20;;;;;;;7.95;6.55;;;;;;;17.91;75.69;100627.20;2726132;87;21077;-66
2021/06/09 01:51:24;;;;;;;10.72;8.30;;;;;;;17.91;75.59;100629.89;2725228;87;21070;-67
2021/06/09 01:55:26;;;;;;;7.35;5.95;;;;;;;17.85;75.45;100635.95;2686121;87;21077;-66
2021/06/09 01:59:32;;;;;;;6.95;6.20;;;;;;;17.80;75.39;100637.78;2681797;88;21149;-67
2021/06/09 02:03:34;;;;;;;7.22;6.30;;;;;;;17.82;75.66;100638.97;2682265;88;21065;-66
2021/06/09 02:07:44;;;;;;;8.65;6.62;;;;;;;17.84;75.23;100633.75;2682259;88;21132;-67
2021/06/09 02:11:47;;;;;;;7.03;6.33;;;;;;;17.83;74.74;100635.27;2682452;88;21069;-67
2021/06/09 02:15:57;;;;;;;7.33;5.92;;;;;;;17.82;74.37;100638.45;2705659;87;21579;-68
2021/06/09 02:19:56;;;;;;;7.67;6.92;;;;;;;17.81;74.22;100640.80;2725059;87;21030;-67
2021/06/09 02:23:58;;;;;;;9.13;6.05;;;;;;;17.74;74.63;100636.25;2725827;87;21049;-68
2021/06/09 02:28:00;;;;;;;6.87;5.87;;;;;;;17.48;74.91;100638.02;2725779;87;21053;-68
2021/06/09 02:32:02;;;;;;;7.55;5.85;;;;;;;17.40;75.36;100639.34;2719844;87;21591;-67
2021/06/09 02:36:06;;;;;;;9.43;5.70;;;;;;;17.33;75.40;100636.45;2723917;87;21042;-67
2021/06/09 02:40:10;;;;;;;6.60;5.92;;;;;;;17.22;75.26;100640.27;2725196;87;21038;-67
2021/06/09 02:44:12;;;;;;;6.55;5.12;;;;;;;17.15;75.53;100639.72;2725686;87;21038;-67
2021/06/09 02:48:16;;;;;;;7.72;4.87;;;;;;;17.16;75.80;100641.41;2725975;87;21057;-65
2021/06/09 02:52:25;;;;;;;7.37;6.25;;;;;;;17.20;75.90;100640.94;2725877;87;21045;-67
2021/06/09 02:57:06;;;;;;;7.53;5.42;;;;;;;17.19;75.71;100643.28;2714961;85;21613;-67
2021/06/09 03:01:31;;;;;;;15.83;5.95;;;;;;;17.14;75.48;100640.25;2703779;85;21053;-68
2021/06/09 03:05:44;;;;;;;9.30;5.77;;;;;;;17.10;75.80;100648.30;2716283;87;21117;-67
2021/06/09 03:10:17;;;;;;;5.40;4.90;;;;;;;17.12;76.28;100647.11;2700971;87;21040;-67
2021/06/09 03:19:09;;;;;;;7.92;5.40;;;;;;;17.20;76.01;100650.34;2682483;87;22079;-66
2021/06/09 03:23:56;;;;;;;6.40;5.55;;;;;;;17.17;76.09;100653.84;2682269;88;21069;-67
2021/06/09 03:28:22;;;;;;;8.00;6.47;;;;;;;17.13;76.58;100654.69;2708474;85;21560;-67
2021/06/09 03:32:35;;;;;;;10.38;7.67;;;;;;;16.96;77.54;100651.88;2685444;87;21074;-66
2021/06/09 03:36:43;;;;;;;14.38;8.35;;;;;;;16.82;78.38;100648.42;2725636;87;21056;-67
2021/06/09 03:40:47;;;;;;;10.82;7.87;;;;;;;16.89;79.02;100651.31;2713958;87;21137;-67
2021/06/09 03:44:52;;;;;;;16.25;9.20;;;;;;;16.98;79.29;100653.03;2682427;88;21109;-66
2021/06/09 03:48:56;;;;;;;12.97;8.87;;;;;;;16.94;79.63;100659.25;2698866;87;21062;-66
2021/06/09 03:53:08;;;;;;;12.03;8.83;;;;;;;16.97;80.18;100652.70;2725403;87;21005;-66
2021/06/09 03:57:04;;;;;;;15.45;9.50;;;;;;;17.05;80.33;100656.83;2723331;87;21028;-66
2021/06/09 04:01:08;;;;;;;12.58;8.40;;;;;;;17.14;80.41;100659.06;2722811;85;21081;-66
2021/06/09 04:05:11;;;;;;;13.62;7.90;;;;;;;17.13;80.14;100660.06;2688011;87;21073;-67
2021/06/09 04:09:20;;;;;;;9.73;8.25;;;;;;;17.07;80.39;100656.65;2685026;88;21686;-65
2021/06/09 04:13:22;;;;;;;10.30;9.23;;;;;;;17.04;80.54;100663.20;2709002;87;21033;-67
2021/06/09 04:17:27;;;;;;;11.22;8.15;;;;;;;17.02;80.84;100671.07;2705991;85;21049;-63
2021/06/09 04:21:29;;;;;;;23.95;9.90;;;;;;;16.96;81.25;100664.45;2706830;85;21061;-64
2021/06/09 04:25:31;;;;;;;30.10;12.63;;;;;;;17.26;82.66;100670.38;2699384;87;22207;-68
2021/06/09 04:29:32;;;;;;;15.48;10.03;;;;;;;17.78;82.00;100669.39;2728190;87;22442;-67
2021/06/09 04:33:34;;;;;;;11.35;10.10;;;;;;;18.73;79.07;100671.86;2700658;87;21085;-67
2021/06/09 04:37:39;;;;;;;15.32;9.63;;;;;;;19.59;75.86;100677.55;2684907;88;21136;-68
2021/06/09 04:41:41;;;;;;;12.47;9.13;;;;;;;20.22;74.36;100678.89;2685214;88;21173;-65
2021/06/09 04:45:44;;;;;;;10.70;8.65;;;;;;;20.88;72.65;100668.06;2717551;85;21650;-67
2021/06/09 04:49:46;;;;;;;15.88;8.83;;;;;;;21.32;69.52;100670.95;2729114;87;21543;-67
2021/06/09 04:53:48;;;;;;;15.55;9.03;;;;;;;21.69;68.75;100673.22;2728301;87;21054;-66
2021/06/09 04:57:50;;;;;;;13.38;8.48;;;;;;;22.15;67.61;100668.50;2729518;87;21034;-66
2021/06/09 05:01:52;;;;;;;10.03;7.53;;;;;;;22.46;66.88;100669.52;2728400;87;21057;-66
2021/06/09 05:05:55;;;;;;;7.45;6.78;;;;;;;22.60;65.53;100675.09;2729142;87;21049;-67
2021/06/09 05:09:56;;;;;;;7.20;5.75;;;;;;;22.80;65.43;100672.55;2729535;87;21065;-67
2021/06/09 05:14:01;;;;;;;6.72;5.90;;;;;;;23.07;63.68;100678.14;2708676;87;21029;-67
2021/06/09 05:18:08;;;;;;;10.50;6.30;;;;;;;23.04;63.01;100682.61;2729772;87;21097;-66
2021/06/09 05:22:23;;;;;;;10.38;6.58;;;;;;;22.97;63.10;100682.56;2728064;87;21085;-66
2021/06/09 05:26:26;;;;;;;10.20;6.73;;;;;;;23.04;62.94;100681.25;2729306;87;21002;-66
2021/06/09 05:30:29;;;;;;;7.90;5.40;;;;;;;23.14;62.30;100673.58;2729132;87;22236;-66
2021/06/09 05:34:38;;;;;;;6.33;5.75;;;;;;;23.18;61.56;100678.09;2729544;87;21519;-68
2021/06/09 05:38:41;;;;;;;27.42;7.87;;;;;;;23.37;60.58;100681.97;2729570;86;21061;-68
2021/06/09 05:42:44;;;;;;;9.45;5.37;;;;;;;23.45;59.54;100677.75;2729393;86;21073;-65
2021/06/09 05:46:46;;;;;;;5.45;4.90;;;;;;;23.56;60.67;100680.41;2729707;86;21121;-67
2021/06/09 05:50:54;;;;;;;8.45;5.33;;;;;;;23.66;59.70;100680.02;2729569;87;21082;-65
2021/06/09 05:54:55;;;;;;;4.90;4.35;;;;;;;23.51;58.74;100681.00;2729139;86;21050;-67
2021/06/09 05:58:57;;;;;;;6.75;5.12;;;;;;;23.63;59.85;100681.25;2729062;87;21081;-67
2021/06/09 06:03:04;;;;;;;5.00;4.50;;;;;;;23.86;58.61;100688.77;2726015;87;21046;-67
2021/06/09 06:07:06;;;;;;;10.50;5.22;;;;;;;23.89;58.39;100695.14;2727228;87;22221;-66
2021/06/09 06:11:14;;;;;;;5.92;4.60;;;;;;;24.09;58.96;100687.08;2727093;87;21093;-69
2021/06/09 06:15:17;;;;;;;4.00;3.65;;;;;;;24.34;58.40;100694.10;2727224;87;21618;-67
2021/06/09 06:19:19;;;;;;;8.63;4.35;;;;;;;24.39;55.80;100692.98;2727028;87;21053;-66
2021/06/09 06:23:22;;;;;;;5.33;4.72;;;;;;;24.58;55.76;100690.48;2727169;87;20994;-67
2021/06/09 06:27:25;;;;;;;4.08;3.42;;;;;;;24.94;54.96;100696.00;2727555;87;21041;-67
2021/06/09 06:31:29;;;;;;;3.92;3.30;;;;;;;25.28;54.59;100686.43;2727522;87;21089;-67
2021/06/09 06:35:31;;;;;;;3.30;3.00;;;;;;;25.34;53.52;100681.98;2727546;87;21121;-67
2021/06/09 06:39:35;;;;;;;3.05;2.62;;;;;;;25.38;52.62;100685.98;2727658;87;21120;-67
2021/06/09 06:43:39;;;;;;;2.83;2.62;;;;;;;25.69;52.02;100688.48;2727893;86;21038;-67
2021/06/09 06:47:41;;;;;;;3.60;2.85;;;;;;;25.95;50.01;100693.51;2727822;87;21038;-68
2021/06/09 06:51:44;;;;;;;3.00;2.75;;;;;;;25.75;50.40;100689.00;2708612;87;20998;-67
2021/06/09 06:55:46;;;;;;;2.30;1.90;;;;;;;25.53;51.10;100690.64;2727651;87;21567;-67
2021/06/09 06:59:48;;;;;;;1.95;1.85;;;;;;;25.42;51.81;100689.09;2727429;86;21021;-66
2021/06/09 07:03:50;;;;;;;6.70;2.15;;;;;;;25.23;50.52;100688.42;2727705;87;21053;-67
2021/06/09 07:07:55;;;;;;;1.75;1.32;;;;;;;24.76;49.52;100695.81;2727617;87;21097;-67
2021/06/09 07:11:57;;;;;;;1.30;0.90;;;;;;;24.55;50.33;100699.03;2727834;87;21050;-67
2021/06/09 07:16:01;;;;;;;1.20;1.10;;;;;;;24.74;49.64;100696.52;2727274;87;21053;-66
2021/06/09 07:20:08;;;;;;;2.10;1.40;;;;;;;25.03;48.83;100700.70;2727629;87;21109;-68
2021/06/09 07:24:11;;;;;;;2.65;1.40;;;;;;;25.37;47.74;100693.84;2727572;87;21097;-66
2021/06/09 07:28:17;;;;;;;1.45;0.98;;;;;;;25.30;45.87;100694.36;2727668;87;21029;-66
2021/06/09 07:32:19;;;;;;;1.60;1.22;;;;;;;25.23;46.27;100694.37;2727813;87;21085;-67
2021/06/09 07:36:38;;;;;;;1.85;1.45;;;;;;;25.45;46.97;100690.02;2727750;87;21077;-67
2021/06/09 07:40:43;;;;;;;1.52;1.10;;;;;;;25.59;46.46;100696.30;2727451;87;21073;-67
2021/06/09 07:45:08;;;;;;;2.22;1.72;;;;;;;25.63;45.53;100692.91;2726959;87;21028;-66
2021/06/09 07:49:12;;;;;;;1.00;0.90;;;;;;;25.69;46.00;100690.39;2727626;87;21033;-64
2021/06/09 07:53:17;;;;;;;2.80;1.40;;;;;;;25.89;46.80;100686.19;2727899;87;21006;-68
2021/06/09 07:57:19;;;;;;;1.77;1.32;;;;;;;26.05;45.22;100692.48;2728511;87;21069;-67
2021/06/09 08:01:21;;;;;;;1.62;1.40;;;;;;;26.17;44.81;100684.47;2728393;87;21010;-66
2021/06/09 08:05:25;;;;;;;1.70;1.35;;;;;;;26.40;43.91;100690.41;2728440;87;21038;-66
2021/06/09 08:09:29;;;;;;;3.03;1.10;;;;;;;26.43;44.53;100695.41;2728676;87;21121;-68
2021/06/09 08:13:31;;;;;;;1.50;1.20;;;;;;;26.68;44.73;100691.84;2710144;87;21069;-68
2021/06/09 08:17:33;;;;;;;2.12;1.60;;;;;;;26.75;43.57;100690.73;2728463;87;21038;-67
2021/06/09 08:21:36;;;;;;;1.82;1.57;;;;;;;26.85;43.66;100694.34;2709895;87;21026;-67
2021/06/09 08:25:37;;;;;;;2.80;1.00;;;;;;;26.96;44.37;100695.50;2728500;87;21073;-66
2021/06/09 08:29:39;;;;;;;2.87;1.27;;;;;;;26.90;42.35;100695.86;2728730;87;21022;-67
2021/06/09 08:33:48;;;;;;;1.15;0.93;;;;;;;26.63;43.14;100698.00;2728444;87;21620;-67
2021/06/09 08:37:57;;;;;;;1.20;0.98;;;;;;;26.40;43.24;100700.77;2704745;87;21076;-66
2021/06/09 08:42:03;;;;;;;1.30;1.20;;;;;;;26.20;42.01;100698.20;2684729;88;21041;-66
2021/06/09 08:46:08;;;;;;;4.65;1.50;;;;;;;26.09;42.88;100707.34;2685198;87;21033;-67
2021/06/09 08:50:13;;;;;;;2.57;0.93;;;;;;;26.20;44.02;100698.20;2685608;88;21085;-67
2021/06/09 08:54:16;;;;;;;1.52;1.35;;;;;;;26.17;43.05;100706.28;2685535;88;21026;-67
2021/06/09 08:58:17;;;;;;;11.48;3.40;;;;;;;26.20;42.39;100706.38;2685347;88;21065;-66
2021/06/09 09:02:19;;;;;;;3.80;1.05;;;;;;;26.12;41.94;100706.08;2685326;88;21061;-67
2021/06/09 09:06:21;;;;;;;3.75;1.25;;;;;;;26.13;43.86;100702.81;2685292;88;21070;-67
2021/06/09 09:10:24;;;;;;;2.05;1.47;;;;;;;26.10;42.99;100708.20;2685295;88;21108;-66
2021/06/09 09:14:26;;;;;;;1.50;1.40;;;;;;;26.02;41.48;100702.47;2685657;88;21074;-66
2021/06/09 09:19:12;;;;;;;1.17;0.95;;;;;;;26.05;41.47;100703.94;2685628;88;21037;-69
2021/06/09 09:23:29;;;;;;;2.83;1.27;;;;;;;26.01;41.84;100714.43;2703682;87;21030;-68
2021/06/09 09:27:31;;;;;;;4.62;1.70;;;;;;;26.04;43.38;100704.45;2729233;87;21117;-66
2021/06/09 09:31:49;;;;;;;2.25;0.93;;;;;;;26.12;42.25;100705.23;2729199;86;21018;-66
2021/06/09 09:35:51;;;;;;;1.85;0.98;;;;;;;26.17;41.37;100696.74;2729070;87;21042;-67
2021/06/09 09:40:16;;;;;;;3.02;1.25;;;;;;;26.17;42.27;100704.92;2729149;87;21129;-67
2021/06/09 09:44:21;;;;;;;1.90;0.80;;;;;;;26.16;41.33;100707.85;2727728;87;21030;-67
2021/06/09 09:48:23;;;;;;;0.95;0.72;;;;;;;26.13;40.26;100705.02;2728031;87;21078;-67
2021/06/09 09:52:24;;;;;;;4.00;1.85;;;;;;;26.06;41.07;100709.69;2727673;87;21066;-68
2021/06/09 09:56:29;;;;;;;2.40;1.17;;;;;;;26.17;41.90;100704.10;2727865;87;21551;-66
2021/06/09 10:00:32;;;;;;;1.50;1.05;;;;;;;26.31;41.98;100706.20;2728093;86;21110;-66
2021/06/09 10:04:35;;;;;;;1.02;0.93;;;;;;;26.43;43.82;100704.95;2730781;87;21038;-66
2021/06/09 10:08:37;;;;;;;11.65;1.15;;;;;;;26.44;41.31;100705.27;2730809;86;21014;-66
2021/06/09 10:12:39;;;;;;;1.42;0.90;;;;;;;26.40;42.21;100708.14;2731157;87;21030;-66
2021/06/09 10:16:41;;;;;;;1.27;0.98;;;;;;;26.39;41.15;100707.28;2730997;86;21105;-67
2021/06/09 10:20:47;;;;;;;3.22;1.10;;;;;;;26.42;41.30;100703.29;2731271;87;21519;-66
2021/06/09 10:25:08;;;;;;;1.25;0.90;;;;;;;26.26;41.18;100702.77;2730276;87;21616;-69
2021/06/09 10:29:14;;;;;;;1.87;0.93;;;;;;;26.17;40.39;100705.46;2686406;88;21061;-66
2021/06/09 10:33:17;;;;;;;0.70;0.70;;;;;;;26.25;41.88;100694.28;2702585;87;21057;-66
2021/06/09 10:37:19;;;;;;;1.52;0.75;;;;;;;26.44;41.55;100703.39;2731431;87;21054;-67
2021/06/09 10:41:25;;;;;;;1.47;0.80;;;;;;;26.48;41.42;100697.79;2730980;86;21117;-66
2021/06/09 10:45:29;;;;;;;1.98;0.62;;;;;;;26.55;42.04;100692.80;2730781;87;21066;-68
2021/06/09 10:49:38;;;;;;;2.85;0.65;;;;;;;26.59;41.86;100695.38;2731293;86;21018;-67
2021/06/09 10:53:40;;;;;;;0.95;0.80;;;;;;;26.54;41.05;100694.71;2731088;87;21057;-68
2021/06/09 10:57:43;;;;;;;3.40;0.93;;;;;;;26.43;40.14;100685.88;2731039;87;21014;-66
2021/06/09 11:01:48;;;;;;;2.37;0.90;;;;;;;26.36;41.99;100678.59;2723892;86;21081;-66
2021/06/09 11:05:50;;;;;;;0.68;0.60;;;;;;;26.22;42.03;100685.19;2687160;87;21057;-67
2021/06/09 11:09:52;;;;;;;1.57;0.82;;;;;;;26.16;40.89;100673.78;2686914;88;21898;-66
2021/06/09 11:13:54;;;;;;;4.42;1.12;;;;;;;26.16;42.01;100670.50;2687001;88;21673;-66
2021/06/09 11:17:58;;;;;;;1.32;1.00;;;;;;;26.10;41.88;100669.48;2687049;88;21057;-66
2021/06/09 11:22:24;;;;;;;0.90;0.90;;;;;;;26.06;43.50;100675.62;2687042;88;21388;-66
2021/06/09 11:26:29;;;;;;;1.27;0.95;;;;;;;26.08;42.34;100668.06;2686580;88;21045;-67
2021/06/09 11:30:35;;;;;;;2.52;0.68;;;;;;;26.12;43.29;100668.44;2687214;88;21888;-66
2021/06/09 11:34:53;;;;;;;1.17;0.72;;;;;;;26.07;42.81;100665.84;2687453;88;21049;-66
2021/06/09 11:39:11;;;;;;;1.80;0.95;;;;;;;26.15;41.64;100655.21;2658596;89;21076;-67
2021/06/09 11:43:22;;;;;;;2.22;0.80;;;;;;;26.19;40.86;100657.83;2687189;88;21105;-67
2021/06/09 11:47:27;;;;;;;3.60;1.92;;;;;;;26.21;43.08;100654.89;2687391;87;21069;-66
2021/06/09 11:51:40;;;;;;;2.83;0.78;;;;;;;26.16;42.60;100652.78;2687176;88;21033;-66
2021/06/09 11:55:43;;;;;;;2.55;1.32;;;;;;;26.14;40.73;100639.06;2687463;88;21535;-66
2021/06/09 11:59:47;;;;;;;1.17;0.72;;;;;;;26.25;40.35;100639.75;2687382;88;21049;-66
2021/06/09 12:04:23;;;;;;;1.62;1.02;;;;;;;26.24;41.89;100634.00;2685333;88;21559;-66
2021/06/09 12:08:28;;;;;;;1.22;0.53;;;;;;;26.21;42.69;100628.99;2684535;88;21117;-65
2021/06/09 12:12:33;;;;;;;1.00;0.90;;;;;;;26.30;40.95;100625.47;2684755;88;21057;-67
2021/06/09 12:16:35;;;;;;;1.47;0.80;;;;;;;26.29;41.32;100626.52;2685234;88;21061;-67
2021/06/09 12:20:36;;;;;;;1.00;0.90;;;;;;;26.36;42.93;100619.95;2684829;88;21069;-68
2021/06/09 12:24:41;;;;;;;1.00;0.68;;;;;;;26.50;42.02;100608.91;2685145;88;21045;-66
2021/06/09 12:28:43;;;;;;;1.83;0.47;;;;;;;26.59;40.15;100611.67;2685111;88;21057;-67
2021/06/09 12:32:44;;;;;;;1.32;0.68;;;;;;;26.56;41.21;100613.48;2684818;88;21069;-67
2021/06/09 12:36:58;;;;;;;2.37;0.95;;;;;;;26.51;42.11;100605.12;2684837;88;21021;-66
2021/06/09 12:41:00;;;;;;;4.70;1.20;;;;;;;26.52;41.46;100603.55;2683836;88;21638;-67
2021/06/09 12:45:08;;;;;;;2.17;1.00;;;;;;;26.54;40.81;100597.88;2684865;88;21034;-66
2021/06/09 12:49:24;;;;;;;1.00;0.78;;;;;;;26.61;41.29;100601.36;2684938;88;21064;-67
2021/06/09 12:53:29;;;;;;;0.93;0.65;;;;;;;26.73;40.91;100589.17;2679660;88;21038;-66
2021/06/09 12:57:33;;;;;;;;;;;;;;;26.88;40.89;100589.37;2687597;88;21061;-66
2021/06/09 13:01:36;;;;;;;2.27;0.82;;;;;;;27.04;39.39;100579.21;2685225;88;20133;-67
2021/06/09 13:05:39;;;;;;;5.83;1.10;;;;;;;27.07;41.02;100580.11;2687826;87;21054;-67
2021/06/09 13:09:41;;;;;;;2.90;1.20;;;;;;;27.10;40.33;100584.27;2715011;87;21046;-69
2021/06/09 13:13:49;;;;;;;0.80;0.72;;;;;;;27.11;41.50;100571.46;2723031;86;21018;-67
2021/06/09 13:17:51;;;;;;;2.22;1.60;;;;;;;27.15;41.86;100574.88;2687362;87;21096;-67
2021/06/09 13:21:53;;;;;;;4.10;1.20;;;;;;;27.13;40.72;100567.45;2713554;87;21073;-67
2021/06/09 13:26:00;;;;;;;1.25;0.95;;;;;;;27.18;42.04;100565.38;2725955;87;21069;-67
2021/06/09 13:30:08;;;;;;;1.55;1.20;;;;;;;27.30;40.89;100557.23;2686418;88;21065;-67
2021/06/09 13:34:10;;;;;;;1.87;1.00;;;;;;;27.40;40.79;100558.89;2687333;87;21618;-67
2021/06/09 13:38:46;;;;;;;1.32;1.17;;;;;;;27.49;39.90;100547.92;2687114;88;21037;-67
2021/06/09 13:43:45;;;;;;;3.30;1.17;;;;;;;27.47;40.90;100551.97;2685393;88;21084;-67
2021/06/09 13:48:33;;;;;;;1.32;1.22;;;;;;;27.34;42.16;100546.99;2687271;88;21068;-67
2021/06/09 13:53:31;;;;;;;2.60;1.00;;;;;;;27.34;41.19;100543.44;2687186;88;21009;-68
2021/06/09 13:58:32;;;;;;;4.00;1.57;;;;;;;27.43;42.02;100537.94;2562016;92;21100;-66
2021/06/09 14:13:52;;;;;;;2.12;1.27;;;;;;;28.00;40.10;100520.27;2569198;92;21646;-68
2021/06/09 14:18:54;;;;;;;5.42;1.77;;;;;;;28.26;39.06;100520.89;2565651;90;21579;-68
2021/06/09 14:23:49;;;;;;;1.80;1.32;;;;;;;28.54;40.26;100515.23;2563676;92;21750;-66
2021/06/09 14:29:06;;;;;;;2.60;0.90;;;;;;;28.76;40.47;100511.30;2641335;88;21080;-68
2021/06/09 14:38:34;;;;;;;2.62;1.65;;;;;;;28.54;40.29;100497.97;2698040;88;21117;-67
2021/06/09 14:42:44;;;;;;;1.22;1.05;;;;;;;28.58;39.83;100501.88;2743113;83;89089;-62
2021/06/09 14:47:15;;;;;;;;;;;;;;;;;;;;;
2021/06/09 14:51:18;;;;;;;5.10;1.32;;;;;;;28.59;40.68;100496.18;2726249;86;21040;-61
2021/06/09 14:55:21;;;;;;;1.25;1.00;;;;;;;28.60;40.57;100494.29;2696445;86;21902;-61
2021/06/09 14:59:23;;;;;;;1.32;0.80;;;;;;;28.61;41.37;100487.74;2692346;86;21088;-60
2021/06/09 15:03:26;;;;;;;2.70;0.90;;;;;;;28.71;40.88;100495.34;2721107;86;21053;-61
2021/06/09 15:07:28;;;;;;;2.42;1.32;;;;;;;28.71;41.34;100490.67;2701856;86;21068;-61
2021/06/09 15:11:30;;;;;;;3.00;1.17;;;;;;;28.65;40.23;100485.63;2718173;86;21077;-60
2021/06/09 15:15:32;;;;;;;2.15;1.42;;;;;;;28.70;38.40;100490.94;2727603;86;21051;-60
2021/06/09 15:19:35;;;;;;;1.42;1.32;;;;;;;28.77;39.99;100487.52;2711973;86;21040;-61
2021/06/09 15:23:41;;;;;;;1.22;1.05;;;;;;;28.76;40.95;100479.02;2704136;86;21049;-61
2021/06/09 15:27:43;;;;;;;1.42;1.02;;;;;;;28.66;39.40;100483.73;2741418;86;21112;-60
2021/06/09 15:31:45;;;;;;;1.85;1.10;;;;;;;28.63;39.47;100474.09;2733388;86;21597;-61
2021/06/09 15:35:47;;;;;;;1.82;1.02;;;;;;;28.68;39.63;100475.27;2736523;86;21020;-60
2021/06/09 15:39:49;;;;;;;1.25;0.80;;;;;;;28.72;39.70;100469.62;2740508;86;21051;-63
2021/06/09 15:43:51;;;;;;;5.42;1.82;;;;;;;28.69;40.67;100478.30;2710352;86;21051;-62
2021/06/09 15:47:53;;;;;;;1.37;1.15;;;;;;;28.51;41.47;100478.23;2721913;85;21049;-62
2021/06/09 15:51:58;;;;;;;1.67;1.17;;;;;;;28.41;40.75;100468.98;2735153;85;21029;-60
2021/06/09 15:56:03;;;;;;;1.37;1.12;;;;;;;28.19;41.52;100461.41;2714305;86;21067;-62
2021/06/09 16:00:13;;;;;;;2.65;1.57;;;;;;;28.08;42.48;100452.11;2714157;87;21071;-62
2021/06/09 16:04:15;;;;;;;2.58;1.70;;;;;;;27.97;41.57;100460.61;2714559;87;21063;-62
2021/06/09 16:08:17;;;;;;;3.77;1.10;;;;;;;27.89;41.74;100458.22;2713881;87;21051;-62
2021/06/09 16:12:19;;;;;;;1.47;1.35;;;;;;;27.84;43.39;100463.57;2714574;87;21012;-62
2021/06/09 16:16:20;;;;;;;1.62;1.25;;;;;;;27.79;42.33;100455.55;2714540;87;21031;-62
2021/06/09 16:20:22;;;;;;;1.92;0.93;;;;;;;27.73;42.11;100463.34;2721217;85;21037;-62
2021/06/09 16:24:25;;;;;;;1.47;1.37;;;;;;;27.69;42.84;100463.48;2741340;86;21015;-62
2021/06/09 16:28:27;;;;;;;3.70;1.40;;;;;;;27.63;44.03;100458.98;2748846;86;20989;-62
2021/06/09 16:32:28;;;;;;;2.05;1.42;;;;;;;27.45;42.36;100463.42;2685066;87;21045;-62
2021/06/09 16:36:30;;;;;;;2.55;1.47;;;;;;;27.34;45.08;100465.61;2670428;89;21069;-63
2021/06/09 16:40:33;;;;;;;1.32;0.90;;;;;;;27.28;44.24;100461.06;2670815;89;21145;-61
2021/06/09 16:44:35;;;;;;;2.47;1.22;;;;;;;27.21;44.36;100463.89;2659543;89;21054;-62
2021/06/09 16:48:36;;;;;;;1.17;1.07;;;;;;;27.07;43.98;100464.62;2733160;86;21020;-62
2021/06/09 16:52:39;;;;;;;1.02;0.93;;;;;;;26.90;45.55;100459.80;2758356;86;21027;-62
2021/06/09 16:56:45;;;;;;;4.25;1.62;;;;;;;26.72;46.05;100466.10;2764686;86;21029;-62
2021/06/09 17:00:47;;;;;;;0.82;0.78;;;;;;;26.52;46.32;100466.33;2764976;85;21607;-62
2021/06/09 17:04:49;;;;;;;2.58;1.67;;;;;;;26.35;46.69;100464.23;2764726;86;21016;-63
2021/06/09 17:08:52;;;;;;;0.93;0.88;;;;;;;26.24;46.86;100462.24;2764844;86;21067;-62
2021/06/09 17:12:54;;;;;;;1.57;1.32;;;;;;;26.17;48.08;100462.86;2764447;86;21015;-63
2021/06/09 17:16:55;;;;;;;1.92;1.17;;;;;;;26.08;49.82;100466.37;2764544;86;21055;-63
2021/06/09 17:20:57;;;;;;;2.22;1.50;;;;;;;25.99;50.11;100467.19;2764826;86;21067;-61
2021/06/09 17:24:59;;;;;;;1.77;1.40;;;;;;;25.91;49.77;100465.58;2764494;86;21524;-61
2021/06/09 17:29:02;;;;;;;3.05;1.22;;;;;;;25.78;49.05;100467.05;2764149;86;21036;-63
2021/06/09 17:33:05;;;;;;;1.90;1.20;;;;;;;25.66;50.97;100469.15;2762960;86;21051;-62
2021/06/09 17:37:07;;;;;;;1.90;1.25;;;;;;;25.56;51.22;100470.70;2746096;86;21123;-63
2021/06/09 17:41:09;;;;;;;1.75;1.40;;;;;;;25.49;51.72;100475.64;2740487;87;21131;-63
2021/06/09 17:45:12;;;;;;;5.00;1.25;;;;;;;25.41;51.21;100467.73;2723699;86;21545;-62
2021/06/09 17:49:14;;;;;;;1.70;1.10;;;;;;;25.35;51.69;100465.86;2736149;86;21037;-61
2021/06/09 17:53:16;;;;;;;1.45;1.00;;;;;;;25.26;53.05;100468.55;2727503;86;21036;-62
2021/06/09 17:57:18;;;;;;;4.17;1.70;;;;;;;25.17;52.27;100478.36;2745014;86;21084;-64
2021/06/09 18:05:53;;;;;;;3.58;1.70;;;;;;;25.01;52.92;100476.95;2735948;87;21036;-63
2021/06/09 18:09:54;;;;;;;2.02;1.72;;;;;;;24.93;53.41;100478.58;2736066;87;21020;-62
2021/06/09 18:13:56;;;;;;;2.12;1.75;;;;;;;24.79;52.38;100475.09;2734427;86;21066;-62
2021/06/09 18:17:58;;;;;;;7.87;2.80;;;;;;;24.64;51.96;100476.16;2744590;86;21031;-62
2021/06/09 18:22:00;;;;;;;3.67;1.92;;;;;;;24.56;52.59;100474.20;2738216;86;21016;-62
2021/06/09 18:26:02;;;;;;;1.98;1.87;;;;;;;24.46;52.07;100474.64;2679129;87;21065;-61
2021/06/09 18:30:06;;;;;;;51.15;9.00;;;;;;;24.31;52.01;100482.52;2664251;87;21517;-61
2021/06/09 18:34:08;;;;;;;54.18;10.32;;;;;;;24.21;52.29;100479.41;2662325;88;21087;-61
2021/06/09 18:38:12;;;;;;;14.60;2.95;;;;;;;24.06;54.60;100484.55;2669956;86;21093;-62
2021/06/09 18:42:17;;;;;;;5.92;2.62;;;;;;;23.92;55.74;100488.28;2699931;86;21095;-62
2021/06/09 18:46:18;;;;;;;2.58;1.98;;;;;;;23.76;56.73;100484.92;2705751;86;21588;-63
2021/06/09 18:50:26;;;;;;;3.02;1.80;;;;;;;23.63;57.38;100488.48;2695611;86;21076;-63
2021/06/09 18:54:30;;;;;;;4.80;2.08;;;;;;;23.46;58.07;100485.34;2655103;88;21088;-62
2021/06/09 18:58:35;;;;;;;3.47;2.10;;;;;;;23.30;58.43;100491.14;2644855;88;21043;-60
2021/06/09 19:02:38;;;;;;;2.65;1.98;;;;;;;23.08;58.94;100493.44;2679638;88;21106;-61
2021/06/09 19:06:40;;;;;;;3.22;2.17;;;;;;;22.89;59.26;100494.20;2679410;88;21083;-61
2021/06/09 19:10:47;;;;;;;3.15;1.82;;;;;;;22.67;59.41;100496.53;2679111;88;21039;-61
2021/06/09 19:14:51;;;;;;;25.30;4.78;;;;;;;22.47;59.97;100496.94;2672801;88;21123;-61
2021/06/09 19:18:54;;;;;;;17.25;4.10;;;;;;;22.26;60.72;100506.78;2748648;86;21648;-62
2021/06/09 19:22:57;;;;;;;13.30;4.47;;;;;;;22.03;60.92;100511.09;2762267;86;21087;-62
2021/06/09 19:26:58;;;;;;;8.98;4.70;;;;;;;21.84;60.68;100512.08;2694521;86;21170;-62
2021/06/09 19:31:06;;;;;;;8.93;2.87;;;;;;;21.67;60.59;100512.34;2686966;86;21099;-61